sensor_id;sensor_type;location;lat;lon;timestamp;P1;durP1;ratioP1;P2;durP2;ratioP2
30299;SDS011;17110;52.602;12.998;2023-06-22T00:02:19;14.27;;;12.88;;
30299;SDS011;17110;52.602;12.998;2023-06-22T00:04:45;15.25;;;13.95;;
30299;SDS011;17110;52.602;12.998;2023-06-22T00:07:11;13.80;;;12.70;;
30299;SDS011;17110;52.602;12.998;2023-06-22T00:09:37;13.73;;;12.63;;
30299;SDS011;17110;52.602;12.998;2023-06-22T00:12:03;14.07;;;12.98;;
30299;SDS011;17110;52.602;12.998;2023-06-22T00:14:30;14.75;;;12.63;;
30299;SDS011;17110;52.602;12.998;2023-06-22T00:16:55;13.82;;;12.75;;
30299;SDS011;17110;52.602;12.998;2023-06-22T00:19:21;14.55;;;13.23;;
30299;SDS011;17110;52.602;12.998;2023-06-22T00:21:46;14.27;;;13.13;;
30299;SDS011;17110;52.602;12.998;2023-06-22T00:24:13;13.57;;;12.48;;
30299;SDS011;17110;52.602;12.998;2023-06-22T00:26:39;14.30;;;13.15;;
30299;SDS011;17110;52.602;12.998;2023-06-22T00:29:08;14.70;;;13.50;;
30299;SDS011;17110;52.602;12.998;2023-06-22T00:31:34;14.05;;;12.95;;
30299;SDS011;17110;52.602;12.998;2023-06-22T00:33:59;14.25;;;12.85;;
30299;SDS011;17110;52.602;12.998;2023-06-22T00:36:25;14.25;;;12.98;;
30299;SDS011;17110;52.602;12.998;2023-06-22T00:38:51;14.35;;;13.35;;
30299;SDS011;17110;52.602;12.998;2023-06-22T00:41:18;15.38;;;14.10;;
30299;SDS011;17110;52.602;12.998;2023-06-22T00:43:43;14.00;;;12.75;;
30299;SDS011;17110;52.602;12.998;2023-06-22T00:46:09;15.05;;;13.55;;
30299;SDS011;17110;52.602;12.998;2023-06-22T00:48:36;14.07;;;12.93;;
30299;SDS011;17110;52.602;12.998;2023-06-22T00:51:02;14.05;;;12.80;;
30299;SDS011;17110;52.602;12.998;2023-06-22T00:53:28;13.60;;;12.50;;
30299;SDS011;17110;52.602;12.998;2023-06-22T00:55:53;14.13;;;12.75;;
30299;SDS011;17110;52.602;12.998;2023-06-22T00:58:21;14.15;;;13.05;;
30299;SDS011;17110;52.602;12.998;2023-06-22T01:00:47;13.95;;;12.85;;
30299;SDS011;17110;52.602;12.998;2023-06-22T01:03:13;13.98;;;12.68;;
30299;SDS011;17110;52.602;12.998;2023-06-22T01:05:39;14.20;;;12.90;;
30299;SDS011;17110;52.602;12.998;2023-06-22T01:08:07;14.57;;;12.85;;
30299;SDS011;17110;52.602;12.998;2023-06-22T01:10:41;15.15;;;12.95;;
30299;SDS011;17110;52.602;12.998;2023-06-22T01:13:13;13.98;;;12.38;;
30299;SDS011;17110;52.602;12.998;2023-06-22T01:15:49;14.43;;;13.27;;
30299;SDS011;17110;52.602;12.998;2023-06-22T01:18:18;15.15;;;12.65;;
30299;SDS011;17110;52.602;12.998;2023-06-22T01:20:45;13.48;;;12.13;;
30299;SDS011;17110;52.602;12.998;2023-06-22T01:23:16;13.10;;;12.00;;
30299;SDS011;17110;52.602;12.998;2023-06-22T01:25:53;14.52;;;13.43;;
30299;SDS011;17110;52.602;12.998;2023-06-22T01:28:44;13.90;;;12.50;;
30299;SDS011;17110;52.602;12.998;2023-06-22T01:31:12;13.45;;;12.45;;
30299;SDS011;17110;52.602;12.998;2023-06-22T01:33:41;14.18;;;12.80;;
30299;SDS011;17110;52.602;12.998;2023-06-22T01:36:09;14.15;;;13.00;;
30299;SDS011;17110;52.602;12.998;2023-06-22T01:38:37;12.73;;;11.73;;
30299;SDS011;17110;52.602;12.998;2023-06-22T01:41:04;14.82;;;12.38;;
30299;SDS011;17110;52.602;12.998;2023-06-22T01:43:30;14.43;;;12.98;;
30299;SDS011;17110;52.602;12.998;2023-06-22T01:45:59;13.48;;;12.27;;
30299;SDS011;17110;52.602;12.998;2023-06-22T01:48:27;14.57;;;13.27;;
30299;SDS011;17110;52.602;12.998;2023-06-22T01:50:53;13.80;;;12.60;;
30299;SDS011;17110;52.602;12.998;2023-06-22T01:53:20;13.98;;;12.63;;
30299;SDS011;17110;52.602;12.998;2023-06-22T01:55:46;13.50;;;12.18;;
30299;SDS011;17110;52.602;12.998;2023-06-22T01:58:12;12.93;;;11.55;;
30299;SDS011;17110;52.602;12.998;2023-06-22T02:00:38;12.88;;;11.88;;
30299;SDS011;17110;52.602;12.998;2023-06-22T02:03:10;13.25;;;8.20;;
30299;SDS011;17110;52.602;12.998;2023-06-22T02:05:42;12.63;;;11.32;;
30299;SDS011;17110;52.602;12.998;2023-06-22T02:08:16;12.82;;;11.48;;
30299;SDS011;17110;52.602;12.998;2023-06-22T02:10:45;12.55;;;11.55;;
30299;SDS011;17110;52.602;12.998;2023-06-22T02:13:13;13.68;;;12.50;;
30299;SDS011;17110;52.602;12.998;2023-06-22T02:15:39;12.35;;;11.23;;
30299;SDS011;17110;52.602;12.998;2023-06-22T02:18:05;12.35;;;11.32;;
30299;SDS011;17110;52.602;12.998;2023-06-22T02:20:34;11.65;;;10.75;;
30299;SDS011;17110;52.602;12.998;2023-06-22T02:23:02;12.55;;;11.55;;
30299;SDS011;17110;52.602;12.998;2023-06-22T02:25:27;12.20;;;11.20;;
30299;SDS011;17110;52.602;12.998;2023-06-22T02:27:53;13.95;;;12.75;;
30299;SDS011;17110;52.602;12.998;2023-06-22T02:30:19;13.10;;;11.77;;
30299;SDS011;17110;52.602;12.998;2023-06-22T02:32:44;13.88;;;12.52;;
30299;SDS011;17110;52.602;12.998;2023-06-22T02:35:10;13.77;;;12.35;;
30299;SDS011;17110;52.602;12.998;2023-06-22T02:37:37;14.82;;;12.30;;
30299;SDS011;17110;52.602;12.998;2023-06-22T02:40:03;13.75;;;12.60;;
30299;SDS011;17110;52.602;12.998;2023-06-22T02:42:30;13.30;;;12.20;;
30299;SDS011;17110;52.602;12.998;2023-06-22T02:44:55;14.25;;;13.00;;
30299;SDS011;17110;52.602;12.998;2023-06-22T02:47:21;13.07;;;12.07;;
30299;SDS011;17110;52.602;12.998;2023-06-22T02:49:47;13.40;;;12.30;;
30299;SDS011;17110;52.602;12.998;2023-06-22T02:52:13;13.38;;;12.38;;
30299;SDS011;17110;52.602;12.998;2023-06-22T02:54:40;13.40;;;12.27;;
30299;SDS011;17110;52.602;12.998;2023-06-22T02:57:06;14.52;;;13.20;;
30299;SDS011;17110;52.602;12.998;2023-06-22T02:59:31;13.50;;;12.02;;
30299;SDS011;17110;52.602;12.998;2023-06-22T03:02:03;14.25;;;13.05;;
30299;SDS011;17110;52.602;12.998;2023-06-22T03:04:32;14.77;;;13.35;;
30299;SDS011;17110;52.602;12.998;2023-06-22T03:06:58;13.80;;;12.60;;
30299;SDS011;17110;52.602;12.998;2023-06-22T03:09:24;14.50;;;13.30;;
30299;SDS011;17110;52.602;12.998;2023-06-22T03:11:51;15.65;;;14.15;;
30299;SDS011;17110;52.602;12.998;2023-06-22T03:14:18;17.35;;;15.95;;
30299;SDS011;17110;52.602;12.998;2023-06-22T03:16:44;17.52;;;16.02;;
30299;SDS011;17110;52.602;12.998;2023-06-22T03:19:10;17.02;;;15.30;;
30299;SDS011;17110;52.602;12.998;2023-06-22T03:21:37;16.75;;;15.13;;
30299;SDS011;17110;52.602;12.998;2023-06-22T03:24:03;15.73;;;14.32;;
30299;SDS011;17110;52.602;12.998;2023-06-22T03:26:29;15.65;;;14.25;;
30299;SDS011;17110;52.602;12.998;2023-06-22T03:28:57;15.80;;;14.50;;
30299;SDS011;17110;52.602;12.998;2023-06-22T03:31:23;15.13;;;13.82;;
30299;SDS011;17110;52.602;12.998;2023-06-22T03:33:49;16.20;;;14.40;;
30299;SDS011;17110;52.602;12.998;2023-06-22T03:36:15;14.98;;;13.57;;
30299;SDS011;17110;52.602;12.998;2023-06-22T03:38:44;13.65;;;12.65;;
30299;SDS011;17110;52.602;12.998;2023-06-22T03:41:11;13.48;;;12.27;;
30299;SDS011;17110;52.602;12.998;2023-06-22T03:43:37;15.38;;;13.88;;
30299;SDS011;17110;52.602;12.998;2023-06-22T03:46:04;17.42;;;15.90;;
30299;SDS011;17110;52.602;12.998;2023-06-22T03:48:30;17.10;;;15.68;;
30299;SDS011;17110;52.602;12.998;2023-06-22T03:50:55;15.60;;;14.15;;
30299;SDS011;17110;52.602;12.998;2023-06-22T03:53:21;15.68;;;14.27;;
30299;SDS011;17110;52.602;12.998;2023-06-22T03:55:50;17.17;;;15.77;;
30299;SDS011;17110;52.602;12.998;2023-06-22T03:58:17;16.05;;;14.75;;
30299;SDS011;17110;52.602;12.998;2023-06-22T04:00:42;17.73;;;16.13;;
30299;SDS011;17110;52.602;12.998;2023-06-22T04:03:09;18.10;;;16.40;;
30299;SDS011;17110;52.602;12.998;2023-06-22T04:05:35;19.05;;;17.45;;
30299;SDS011;17110;52.602;12.998;2023-06-22T04:08:01;18.90;;;17.20;;
30299;SDS011;17110;52.602;12.998;2023-06-22T04:10:26;18.00;;;16.40;;
30299;SDS011;17110;52.602;12.998;2023-06-22T04:12:52;18.40;;;16.88;;
30299;SDS011;17110;52.602;12.998;2023-06-22T04:15:17;18.85;;;17.23;;
30299;SDS011;17110;52.602;12.998;2023-06-22T04:17:43;18.20;;;16.55;;
30299;SDS011;17110;52.602;12.998;2023-06-22T04:20:10;18.20;;;16.65;;
30299;SDS011;17110;52.602;12.998;2023-06-22T04:22:36;19.92;;;18.27;;
30299;SDS011;17110;52.602;12.998;2023-06-22T04:25:02;19.60;;;17.08;;
30299;SDS011;17110;52.602;12.998;2023-06-22T04:27:28;19.88;;;17.83;;
30299;SDS011;17110;52.602;12.998;2023-06-22T04:29:53;17.83;;;16.13;;
30299;SDS011;17110;52.602;12.998;2023-06-22T04:32:19;18.40;;;16.77;;
30299;SDS011;17110;52.602;12.998;2023-06-22T04:34:45;18.77;;;16.90;;
30299;SDS011;17110;52.602;12.998;2023-06-22T04:37:12;19.08;;;17.25;;
30299;SDS011;17110;52.602;12.998;2023-06-22T04:39:37;16.50;;;15.13;;
30299;SDS011;17110;52.602;12.998;2023-06-22T04:42:03;18.48;;;16.88;;
30299;SDS011;17110;52.602;12.998;2023-06-22T04:44:29;17.35;;;15.75;;
30299;SDS011;17110;52.602;12.998;2023-06-22T04:46:56;16.30;;;14.85;;
30299;SDS011;17110;52.602;12.998;2023-06-22T04:49:22;17.58;;;16.02;;
30299;SDS011;17110;52.602;12.998;2023-06-22T04:51:48;15.32;;;13.98;;
30299;SDS011;17110;52.602;12.998;2023-06-22T04:54:15;14.95;;;13.45;;
30299;SDS011;17110;52.602;12.998;2023-06-22T04:56:40;15.48;;;14.07;;
30299;SDS011;17110;52.602;12.998;2023-06-22T04:59:06;16.23;;;13.30;;
30299;SDS011;17110;52.602;12.998;2023-06-22T05:01:32;13.80;;;12.52;;
30299;SDS011;17110;52.602;12.998;2023-06-22T05:03:58;14.50;;;13.23;;
30299;SDS011;17110;52.602;12.998;2023-06-22T05:06:24;15.13;;;13.73;;
30299;SDS011;17110;52.602;12.998;2023-06-22T05:08:49;14.23;;;12.90;;
30299;SDS011;17110;52.602;12.998;2023-06-22T05:11:17;14.80;;;13.07;;
30299;SDS011;17110;52.602;12.998;2023-06-22T05:13:43;13.98;;;12.70;;
30299;SDS011;17110;52.602;12.998;2023-06-22T05:16:08;13.27;;;12.18;;
30299;SDS011;17110;52.602;12.998;2023-06-22T05:18:34;13.93;;;12.68;;
30299;SDS011;17110;52.602;12.998;2023-06-22T05:21:00;14.07;;;12.68;;
30299;SDS011;17110;52.602;12.998;2023-06-22T05:23:26;13.55;;;12.43;;
30299;SDS011;17110;52.602;12.998;2023-06-22T05:25:51;13.18;;;11.88;;
30299;SDS011;17110;52.602;12.998;2023-06-22T05:28:18;12.13;;;11.02;;
30299;SDS011;17110;52.602;12.998;2023-06-22T05:30:44;12.68;;;11.57;;
30299;SDS011;17110;52.602;12.998;2023-06-22T05:33:10;14.20;;;11.60;;
30299;SDS011;17110;52.602;12.998;2023-06-22T05:35:35;11.60;;;10.55;;
30299;SDS011;17110;52.602;12.998;2023-06-22T05:38:01;10.80;;;9.70;;
30299;SDS011;17110;52.602;12.998;2023-06-22T05:40:26;9.65;;;8.70;;
30299;SDS011;17110;52.602;12.998;2023-06-22T05:42:52;10.90;;;9.80;;
30299;SDS011;17110;52.602;12.998;2023-06-22T05:45:19;8.88;;;8.07;;
30299;SDS011;17110;52.602;12.998;2023-06-22T05:47:45;8.48;;;7.63;;
30299;SDS011;17110;52.602;12.998;2023-06-22T05:50:10;8.57;;;7.65;;
30299;SDS011;17110;52.602;12.998;2023-06-22T05:52:36;7.57;;;6.90;;
30299;SDS011;17110;52.602;12.998;2023-06-22T05:55:02;8.27;;;7.43;;
30299;SDS011;17110;52.602;12.998;2023-06-22T05:57:27;7.95;;;7.20;;
30299;SDS011;17110;52.602;12.998;2023-06-22T05:59:53;11.13;;;7.47;;
30299;SDS011;17110;52.602;12.998;2023-06-22T06:02:20;8.48;;;6.95;;
30299;SDS011;17110;52.602;12.998;2023-06-22T06:04:46;8.13;;;7.35;;
30299;SDS011;17110;52.602;12.998;2023-06-22T06:07:11;7.68;;;6.63;;
30299;SDS011;17110;52.602;12.998;2023-06-22T06:09:37;11.57;;;6.90;;
30299;SDS011;17110;52.602;12.998;2023-06-22T06:12:03;8.85;;;7.30;;
30299;SDS011;17110;52.602;12.998;2023-06-22T06:14:29;7.10;;;6.10;;
30299;SDS011;17110;52.602;12.998;2023-06-22T06:16:55;6.85;;;5.65;;
30299;SDS011;17110;52.602;12.998;2023-06-22T06:19:22;8.48;;;6.05;;
30299;SDS011;17110;52.602;12.998;2023-06-22T06:21:47;6.38;;;5.57;;
30299;SDS011;17110;52.602;12.998;2023-06-22T06:24:13;8.20;;;5.68;;
30299;SDS011;17110;52.602;12.998;2023-06-22T06:26:39;7.25;;;5.13;;
30299;SDS011;17110;52.602;12.998;2023-06-22T06:29:04;8.43;;;5.45;;
30299;SDS011;17110;52.602;12.998;2023-06-22T06:31:30;5.53;;;5.03;;
30299;SDS011;17110;52.602;12.998;2023-06-22T06:33:55;5.15;;;4.65;;
30299;SDS011;17110;52.602;12.998;2023-06-22T06:36:22;6.05;;;5.35;;
30299;SDS011;17110;52.602;12.998;2023-06-22T06:38:48;6.28;;;5.00;;
30299;SDS011;17110;52.602;12.998;2023-06-22T06:41:14;5.82;;;5.20;;
30299;SDS011;17110;52.602;12.998;2023-06-22T06:43:40;4.95;;;4.55;;
30299;SDS011;17110;52.602;12.998;2023-06-22T06:46:06;6.78;;;4.72;;
30299;SDS011;17110;52.602;12.998;2023-06-22T06:48:31;4.95;;;4.38;;
30299;SDS011;17110;52.602;12.998;2023-06-22T06:50:57;5.68;;;4.90;;
30299;SDS011;17110;52.602;12.998;2023-06-22T06:53:24;10.75;;;5.00;;
30299;SDS011;17110;52.602;12.998;2023-06-22T06:55:50;5.82;;;4.60;;
30299;SDS011;17110;52.602;12.998;2023-06-22T06:58:15;7.63;;;4.68;;
30299;SDS011;17110;52.602;12.998;2023-06-22T07:00:41;5.47;;;3.88;;
30299;SDS011;17110;52.602;12.998;2023-06-22T07:03:07;4.85;;;4.35;;
30299;SDS011;17110;52.602;12.998;2023-06-22T07:05:33;4.05;;;3.60;;
30299;SDS011;17110;52.602;12.998;2023-06-22T07:07:59;7.65;;;4.05;;
30299;SDS011;17110;52.602;12.998;2023-06-22T07:10:26;4.32;;;3.85;;
30299;SDS011;17110;52.602;12.998;2023-06-22T07:12:52;7.43;;;4.38;;
30299;SDS011;17110;52.602;12.998;2023-06-22T07:15:17;5.35;;;3.83;;
30299;SDS011;17110;52.602;12.998;2023-06-22T07:17:43;4.55;;;4.03;;
30299;SDS011;17110;52.602;12.998;2023-06-22T07:20:09;6.28;;;4.10;;
30299;SDS011;17110;52.602;12.998;2023-06-22T07:22:35;4.45;;;3.60;;
30299;SDS011;17110;52.602;12.998;2023-06-22T07:25:01;6.68;;;4.05;;
30299;SDS011;17110;52.602;12.998;2023-06-22T07:27:28;4.50;;;3.20;;
30299;SDS011;17110;52.602;12.998;2023-06-22T07:29:54;5.25;;;3.53;;
30299;SDS011;17110;52.602;12.998;2023-06-22T07:32:19;4.97;;;3.40;;
30299;SDS011;17110;52.602;12.998;2023-06-22T07:34:45;3.83;;;3.20;;
30299;SDS011;17110;52.602;12.998;2023-06-22T07:37:11;6.95;;;3.17;;
30299;SDS011;17110;52.602;12.998;2023-06-22T07:39:36;3.47;;;3.17;;
30299;SDS011;17110;52.602;12.998;2023-06-22T07:42:02;5.57;;;3.08;;
30299;SDS011;17110;52.602;12.998;2023-06-22T07:44:29;8.23;;;3.30;;
30299;SDS011;17110;52.602;12.998;2023-06-22T07:46:55;3.03;;;2.72;;
30299;SDS011;17110;52.602;12.998;2023-06-22T07:49:21;4.63;;;3.17;;
30299;SDS011;17110;52.602;12.998;2023-06-22T07:51:46;4.18;;;3.00;;
30299;SDS011;17110;52.602;12.998;2023-06-22T07:54:12;3.60;;;3.30;;
30299;SDS011;17110;52.602;12.998;2023-06-22T07:56:37;6.75;;;3.05;;
30299;SDS011;17110;52.602;12.998;2023-06-22T07:59:03;5.18;;;2.38;;
30299;SDS011;17110;52.602;12.998;2023-06-22T08:01:30;6.55;;;3.00;;
30299;SDS011;17110;52.602;12.998;2023-06-22T08:03:56;6.13;;;2.78;;
30299;SDS011;17110;52.602;12.998;2023-06-22T08:06:22;4.72;;;2.90;;
30299;SDS011;17110;52.602;12.998;2023-06-22T08:08:47;6.40;;;2.80;;
30299;SDS011;17110;52.602;12.998;2023-06-22T08:11:13;8.98;;;3.20;;
30299;SDS011;17110;52.602;12.998;2023-06-22T08:13:39;3.45;;;2.60;;
30299;SDS011;17110;52.602;12.998;2023-06-22T08:16:04;7.03;;;2.88;;
30299;SDS011;17110;52.602;12.998;2023-06-22T08:18:31;5.15;;;3.20;;
30299;SDS011;17110;52.602;12.998;2023-06-22T08:20:57;5.35;;;3.25;;
30299;SDS011;17110;52.602;12.998;2023-06-22T08:23:22;4.22;;;2.78;;
30299;SDS011;17110;52.602;12.998;2023-06-22T08:25:48;3.65;;;2.60;;
30299;SDS011;17110;52.602;12.998;2023-06-22T08:28:14;10.20;;;3.28;;
30299;SDS011;17110;52.602;12.998;2023-06-22T08:30:39;16.58;;;3.63;;
30299;SDS011;17110;52.602;12.998;2023-06-22T08:33:05;4.10;;;2.85;;
30299;SDS011;17110;52.602;12.998;2023-06-22T08:35:32;4.43;;;2.85;;
30299;SDS011;17110;52.602;12.998;2023-06-22T08:37:58;5.38;;;2.70;;
30299;SDS011;17110;52.602;12.998;2023-06-22T08:40:24;4.03;;;2.58;;
30299;SDS011;17110;52.602;12.998;2023-06-22T08:42:50;3.47;;;3.10;;
30299;SDS011;17110;52.602;12.998;2023-06-22T08:45:16;3.25;;;2.90;;
30299;SDS011;17110;52.602;12.998;2023-06-22T08:47:42;3.53;;;2.50;;
30299;SDS011;17110;52.602;12.998;2023-06-22T08:50:08;4.25;;;3.15;;
30299;SDS011;17110;52.602;12.998;2023-06-22T08:52:35;29.35;;;4.88;;
30299;SDS011;17110;52.602;12.998;2023-06-22T08:55:01;4.80;;;3.35;;
30299;SDS011;17110;52.602;12.998;2023-06-22T08:57:27;6.35;;;3.50;;
30299;SDS011;17110;52.602;12.998;2023-06-22T08:59:53;6.72;;;2.95;;
30299;SDS011;17110;52.602;12.998;2023-06-22T09:02:19;6.43;;;2.92;;
30299;SDS011;17110;52.602;12.998;2023-06-22T09:04:45;31.90;;;4.75;;
30299;SDS011;17110;52.602;12.998;2023-06-22T09:07:11;47.03;;;5.88;;
30299;SDS011;17110;52.602;12.998;2023-06-22T09:09:38;4.88;;;2.95;;
30299;SDS011;17110;52.602;12.998;2023-06-22T09:12:04;7.30;;;2.83;;
30299;SDS011;17110;52.602;12.998;2023-06-22T09:14:30;4.78;;;3.10;;
30299;SDS011;17110;52.602;12.998;2023-06-22T09:16:55;5.93;;;2.92;;
30299;SDS011;17110;52.602;12.998;2023-06-22T09:19:21;4.93;;;2.92;;
30299;SDS011;17110;52.602;12.998;2023-06-22T09:21:47;4.47;;;3.20;;
30299;SDS011;17110;52.602;12.998;2023-06-22T09:24:12;4.45;;;2.83;;
30299;SDS011;17110;52.602;12.998;2023-06-22T09:26:40;4.00;;;3.38;;
30299;SDS011;17110;52.602;12.998;2023-06-22T09:29:05;5.45;;;3.10;;
30299;SDS011;17110;52.602;12.998;2023-06-22T09:31:31;5.85;;;3.33;;
30299;SDS011;17110;52.602;12.998;2023-06-22T09:33:56;11.55;;;3.30;;
30299;SDS011;17110;52.602;12.998;2023-06-22T09:36:22;5.80;;;3.55;;
30299;SDS011;17110;52.602;12.998;2023-06-22T09:38:48;4.53;;;3.22;;
30299;SDS011;17110;52.602;12.998;2023-06-22T09:41:14;5.68;;;3.13;;
30299;SDS011;17110;52.602;12.998;2023-06-22T09:43:41;4.57;;;2.95;;
30299;SDS011;17110;52.602;12.998;2023-06-22T09:46:07;5.13;;;3.17;;
30299;SDS011;17110;52.602;12.998;2023-06-22T09:48:33;11.23;;;3.53;;
30299;SDS011;17110;52.602;12.998;2023-06-22T09:50:58;3.85;;;3.30;;
30299;SDS011;17110;52.602;12.998;2023-06-22T09:53:24;5.72;;;3.33;;
30299;SDS011;17110;52.602;12.998;2023-06-22T09:55:49;8.82;;;3.20;;
30299;SDS011;17110;52.602;12.998;2023-06-22T09:58:15;5.85;;;3.30;;
30299;SDS011;17110;52.602;12.998;2023-06-22T10:00:42;5.28;;;3.10;;
30299;SDS011;17110;52.602;12.998;2023-06-22T10:03:08;29.15;;;4.82;;
30299;SDS011;17110;52.602;12.998;2023-06-22T10:05:33;12.05;;;3.63;;
30299;SDS011;17110;52.602;12.998;2023-06-22T10:07:59;9.13;;;3.80;;
30299;SDS011;17110;52.602;12.998;2023-06-22T10:10:25;5.05;;;3.30;;
30299;SDS011;17110;52.602;12.998;2023-06-22T10:12:54;4.65;;;3.30;;
30299;SDS011;17110;52.602;12.998;2023-06-22T10:15:21;4.65;;;3.20;;
30299;SDS011;17110;52.602;12.998;2023-06-22T10:17:48;4.35;;;3.45;;
30299;SDS011;17110;52.602;12.998;2023-06-22T10:20:13;8.57;;;3.45;;
30299;SDS011;17110;52.602;12.998;2023-06-22T10:22:40;5.32;;;3.45;;
30299;SDS011;17110;52.602;12.998;2023-06-22T10:25:06;4.35;;;3.22;;
30299;SDS011;17110;52.602;12.998;2023-06-22T10:27:32;4.82;;;3.22;;
30299;SDS011;17110;52.602;12.998;2023-06-22T10:29:58;5.80;;;3.40;;
30299;SDS011;17110;52.602;12.998;2023-06-22T10:32:24;3.85;;;3.20;;
30299;SDS011;17110;52.602;12.998;2023-06-22T10:34:51;5.20;;;3.08;;
30299;SDS011;17110;52.602;12.998;2023-06-22T10:37:16;3.47;;;3.17;;
30299;SDS011;17110;52.602;12.998;2023-06-22T10:39:42;4.22;;;3.53;;
30299;SDS011;17110;52.602;12.998;2023-06-22T10:42:08;4.20;;;3.20;;
30299;SDS011;17110;52.602;12.998;2023-06-22T10:44:33;3.67;;;3.15;;
30299;SDS011;17110;52.602;12.998;2023-06-22T10:46:59;14.95;;;4.10;;
30299;SDS011;17110;52.602;12.998;2023-06-22T10:49:25;6.05;;;3.78;;
30299;SDS011;17110;52.602;12.998;2023-06-22T10:51:52;3.45;;;3.15;;
30299;SDS011;17110;52.602;12.998;2023-06-22T10:54:17;16.23;;;3.83;;
30299;SDS011;17110;52.602;12.998;2023-06-22T10:56:43;4.15;;;3.53;;
30299;SDS011;17110;52.602;12.998;2023-06-22T10:59:08;6.72;;;3.30;;
30299;SDS011;17110;52.602;12.998;2023-06-22T11:01:34;4.32;;;3.92;;
30299;SDS011;17110;52.602;12.998;2023-06-22T11:04:00;6.85;;;4.60;;
30299;SDS011;17110;52.602;12.998;2023-06-22T11:06:25;4.57;;;3.60;;
30299;SDS011;17110;52.602;12.998;2023-06-22T11:08:52;4.18;;;3.72;;
30299;SDS011;17110;52.602;12.998;2023-06-22T11:11:18;7.18;;;3.63;;
30299;SDS011;17110;52.602;12.998;2023-06-22T11:13:44;5.32;;;4.88;;
30299;SDS011;17110;52.602;12.998;2023-06-22T11:16:10;5.80;;;4.65;;
30299;SDS011;17110;52.602;12.998;2023-06-22T11:18:35;6.18;;;4.32;;
30299;SDS011;17110;52.602;12.998;2023-06-22T11:21:01;4.70;;;4.30;;
30299;SDS011;17110;52.602;12.998;2023-06-22T11:23:27;6.07;;;4.22;;
30299;SDS011;17110;52.602;12.998;2023-06-22T11:25:54;4.82;;;4.18;;
30299;SDS011;17110;52.602;12.998;2023-06-22T11:28:19;6.55;;;4.47;;
30299;SDS011;17110;52.602;12.998;2023-06-22T11:30:45;6.32;;;4.63;;
30299;SDS011;17110;52.602;12.998;2023-06-22T11:33:11;7.22;;;4.70;;
30299;SDS011;17110;52.602;12.998;2023-06-22T11:35:36;4.82;;;4.28;;
30299;SDS011;17110;52.602;12.998;2023-06-22T11:38:02;4.63;;;4.22;;
30299;SDS011;17110;52.602;12.998;2023-06-22T11:40:28;5.35;;;4.55;;
30299;SDS011;17110;52.602;12.998;2023-06-22T11:42:55;6.28;;;4.85;;
30299;SDS011;17110;52.602;12.998;2023-06-22T11:45:20;6.00;;;4.68;;
30299;SDS011;17110;52.602;12.998;2023-06-22T11:47:46;4.60;;;4.20;;
30299;SDS011;17110;52.602;12.998;2023-06-22T11:50:12;5.43;;;4.55;;
30299;SDS011;17110;52.602;12.998;2023-06-22T11:52:37;4.93;;;3.90;;
30299;SDS011;17110;52.602;12.998;2023-06-22T11:55:03;6.38;;;4.50;;
30299;SDS011;17110;52.602;12.998;2023-06-22T11:57:29;6.13;;;4.43;;
30299;SDS011;17110;52.602;12.998;2023-06-22T11:59:56;5.10;;;4.70;;
30299;SDS011;17110;52.602;12.998;2023-06-22T12:02:22;5.75;;;4.10;;
30299;SDS011;17110;52.602;12.998;2023-06-22T12:04:48;5.43;;;4.38;;
30299;SDS011;17110;52.602;12.998;2023-06-22T12:07:13;9.07;;;4.65;;
30299;SDS011;17110;52.602;12.998;2023-06-22T12:09:39;4.80;;;4.28;;
30299;SDS011;17110;52.602;12.998;2023-06-22T12:12:05;4.60;;;4.20;;
30299;SDS011;17110;52.602;12.998;2023-06-22T12:14:31;4.78;;;4.28;;
30299;SDS011;17110;52.602;12.998;2023-06-22T12:16:58;4.70;;;4.30;;
30299;SDS011;17110;52.602;12.998;2023-06-22T12:19:23;7.22;;;5.07;;
30299;SDS011;17110;52.602;12.998;2023-06-22T12:21:49;5.05;;;4.50;;
30299;SDS011;17110;52.602;12.998;2023-06-22T12:24:15;5.07;;;4.57;;
30299;SDS011;17110;52.602;12.998;2023-06-22T12:26:40;6.32;;;5.20;;
30299;SDS011;17110;52.602;12.998;2023-06-22T12:29:06;7.40;;;5.05;;
30299;SDS011;17110;52.602;12.998;2023-06-22T12:31:32;5.93;;;4.63;;
30299;SDS011;17110;52.602;12.998;2023-06-22T12:33:58;5.20;;;4.70;;
30299;SDS011;17110;52.602;12.998;2023-06-22T12:36:24;5.03;;;4.57;;
30299;SDS011;17110;52.602;12.998;2023-06-22T12:38:50;4.80;;;4.40;;
30299;SDS011;17110;52.602;12.998;2023-06-22T12:41:16;6.55;;;4.40;;
30299;SDS011;17110;52.602;12.998;2023-06-22T12:43:41;18.77;;;5.43;;
30299;SDS011;17110;52.602;12.998;2023-06-22T12:46:07;7.07;;;4.60;;
30299;SDS011;17110;52.602;12.998;2023-06-22T12:48:32;23.48;;;6.03;;
30299;SDS011;17110;52.602;12.998;2023-06-22T12:51:00;5.10;;;4.55;;
30299;SDS011;17110;52.602;12.998;2023-06-22T12:53:26;5.80;;;5.07;;
30299;SDS011;17110;52.602;12.998;2023-06-22T12:55:51;6.85;;;5.15;;
30299;SDS011;17110;52.602;12.998;2023-06-22T12:58:17;5.95;;;4.70;;
30299;SDS011;17110;52.602;12.998;2023-06-22T13:00:43;7.88;;;4.57;;
30299;SDS011;17110;52.602;12.998;2023-06-22T13:03:08;7.32;;;4.70;;
30299;SDS011;17110;52.602;12.998;2023-06-22T13:05:34;5.13;;;4.63;;
30299;SDS011;17110;52.602;12.998;2023-06-22T13:08:01;5.47;;;4.90;;
30299;SDS011;17110;52.602;12.998;2023-06-22T13:10:27;5.63;;;5.13;;
30299;SDS011;17110;52.602;12.998;2023-06-22T13:12:52;5.22;;;4.80;;
30299;SDS011;17110;52.602;12.998;2023-06-22T13:15:18;108.90;;;11.32;;
30299;SDS011;17110;52.602;12.998;2023-06-22T13:17:44;7.53;;;4.80;;
30299;SDS011;17110;52.602;12.998;2023-06-22T13:20:10;6.63;;;4.65;;
30299;SDS011;17110;52.602;12.998;2023-06-22T13:22:36;5.18;;;4.65;;
30299;SDS011;17110;52.602;12.998;2023-06-22T13:25:03;43.55;;;8.05;;
30299;SDS011;17110;52.602;12.998;2023-06-22T13:27:29;4.63;;;4.00;;
30299;SDS011;17110;52.602;12.998;2023-06-22T13:29:55;6.97;;;4.45;;
30299;SDS011;17110;52.602;12.998;2023-06-22T13:32:20;5.28;;;4.68;;
30299;SDS011;17110;52.602;12.998;2023-06-22T13:34:46;5.10;;;4.63;;
30299;SDS011;17110;52.602;12.998;2023-06-22T13:37:12;8.65;;;4.70;;
30299;SDS011;17110;52.602;12.998;2023-06-22T13:39:38;5.30;;;4.80;;
30299;SDS011;17110;52.602;12.998;2023-06-22T13:42:05;5.28;;;4.78;;
30299;SDS011;17110;52.602;12.998;2023-06-22T13:44:31;59.40;;;7.95;;
30299;SDS011;17110;52.602;12.998;2023-06-22T13:46:57;4.70;;;4.30;;
30299;SDS011;17110;52.602;12.998;2023-06-22T13:49:23;6.88;;;4.47;;
30299;SDS011;17110;52.602;12.998;2023-06-22T13:51:49;6.22;;;4.78;;
30299;SDS011;17110;52.602;12.998;2023-06-22T13:54:14;6.70;;;5.07;;
30299;SDS011;17110;52.602;12.998;2023-06-22T13:56:40;7.75;;;4.47;;
30299;SDS011;17110;52.602;12.998;2023-06-22T13:59:07;9.15;;;4.70;;
30299;SDS011;17110;52.602;12.998;2023-06-22T14:01:33;5.55;;;4.85;;
30299;SDS011;17110;52.602;12.998;2023-06-22T14:03:59;5.80;;;4.55;;
30299;SDS011;17110;52.602;12.998;2023-06-22T14:06:24;4.70;;;4.20;;
30299;SDS011;17110;52.602;12.998;2023-06-22T14:08:52;6.65;;;4.45;;
30299;SDS011;17110;52.602;12.998;2023-06-22T14:11:17;4.70;;;4.30;;
30299;SDS011;17110;52.602;12.998;2023-06-22T14:13:43;6.50;;;4.97;;
30299;SDS011;17110;52.602;12.998;2023-06-22T14:16:10;5.10;;;4.60;;
30299;SDS011;17110;52.602;12.998;2023-06-22T14:18:36;4.68;;;4.28;;